sensor_id;sensor_type;location;lat;lon;timestamp;P1;durP1;ratioP1;P2;durP2;ratioP2
11854;SDS011;5987;53.140;8.904;2023-07-29T00:01:34;12.57;;;8.03;;
11854;SDS011;5987;53.140;8.904;2023-07-29T00:04:37;15.27;;;9.83;;
11854;SDS011;5987;53.140;8.904;2023-07-29T00:07:42;11.77;;;8.40;;
11854;SDS011;5987;53.140;8.904;2023-07-29T00:10:46;12.70;;;8.63;;
11854;SDS011;5987;53.140;8.904;2023-07-29T00:13:50;14.07;;;8.73;;
11854;SDS011;5987;53.140;8.904;2023-07-29T00:16:54;12.20;;;8.27;;
11854;SDS011;5987;53.140;8.904;2023-07-29T00:19:58;19.60;;;9.50;;
11854;SDS011;5987;53.140;8.904;2023-07-29T00:23:02;16.80;;;8.90;;
11854;SDS011;5987;53.140;8.904;2023-07-29T00:26:06;11.07;;;7.30;;
11854;SDS011;5987;53.140;8.904;2023-07-29T00:29:10;11.57;;;8.37;;
11854;SDS011;5987;53.140;8.904;2023-07-29T00:32:13;9.80;;;5.93;;
11854;SDS011;5987;53.140;8.904;2023-07-29T00:35:17;15.20;;;6.00;;
11854;SDS011;5987;53.140;8.904;2023-07-29T00:38:22;11.80;;;7.00;;
11854;SDS011;5987;53.140;8.904;2023-07-29T00:41:25;12.67;;;9.47;;
11854;SDS011;5987;53.140;8.904;2023-07-29T00:44:29;9.40;;;7.63;;
11854;SDS011;5987;53.140;8.904;2023-07-29T00:47:33;10.83;;;7.53;;
11854;SDS011;5987;53.140;8.904;2023-07-29T00:50:37;12.40;;;7.70;;
11854;SDS011;5987;53.140;8.904;2023-07-29T00:53:43;9.73;;;6.10;;
11854;SDS011;5987;53.140;8.904;2023-07-29T00:56:47;14.67;;;7.90;;
11854;SDS011;5987;53.140;8.904;2023-07-29T00:59:50;14.27;;;8.30;;
11854;SDS011;5987;53.140;8.904;2023-07-29T01:02:55;10.87;;;7.27;;
11854;SDS011;5987;53.140;8.904;2023-07-29T01:06:11;13.40;;;8.80;;
11854;SDS011;5987;53.140;8.904;2023-07-29T01:09:29;12.07;;;8.50;;
11854;SDS011;5987;53.140;8.904;2023-07-29T01:12:45;12.93;;;7.20;;
11854;SDS011;5987;53.140;8.904;2023-07-29T01:15:58;14.90;;;9.33;;
11854;SDS011;5987;53.140;8.904;2023-07-29T01:19:10;10.30;;;7.67;;
11854;SDS011;5987;53.140;8.904;2023-07-29T01:22:41;15.30;;;9.37;;
11854;SDS011;5987;53.140;8.904;2023-07-29T01:25:47;11.23;;;7.23;;
11854;SDS011;5987;53.140;8.904;2023-07-29T01:28:51;15.60;;;9.40;;
11854;SDS011;5987;53.140;8.904;2023-07-29T01:31:56;13.67;;;8.20;;
11854;SDS011;5987;53.140;8.904;2023-07-29T01:35:21;13.77;;;8.80;;
11854;SDS011;5987;53.140;8.904;2023-07-29T01:38:30;13.97;;;8.30;;
11854;SDS011;5987;53.140;8.904;2023-07-29T01:41:40;13.10;;;8.60;;
11854;SDS011;5987;53.140;8.904;2023-07-29T01:44:46;16.40;;;8.30;;
11854;SDS011;5987;53.140;8.904;2023-07-29T01:47:50;16.50;;;9.77;;
11854;SDS011;5987;53.140;8.904;2023-07-29T01:50:53;16.83;;;9.90;;
11854;SDS011;5987;53.140;8.904;2023-07-29T01:53:57;18.87;;;11.47;;
11854;SDS011;5987;53.140;8.904;2023-07-29T01:57:03;16.70;;;10.37;;
11854;SDS011;5987;53.140;8.904;2023-07-29T02:00:07;13.57;;;8.77;;
11854;SDS011;5987;53.140;8.904;2023-07-29T02:03:12;14.10;;;8.17;;
11854;SDS011;5987;53.140;8.904;2023-07-29T02:06:15;13.97;;;9.93;;
11854;SDS011;5987;53.140;8.904;2023-07-29T02:09:19;11.63;;;7.67;;
11854;SDS011;5987;53.140;8.904;2023-07-29T02:12:24;13.20;;;8.80;;
11854;SDS011;5987;53.140;8.904;2023-07-29T02:15:28;15.53;;;9.17;;
11854;SDS011;5987;53.140;8.904;2023-07-29T02:18:32;15.07;;;8.97;;
11854;SDS011;5987;53.140;8.904;2023-07-29T02:21:35;16.90;;;9.70;;
11854;SDS011;5987;53.140;8.904;2023-07-29T02:24:39;17.37;;;10.80;;
11854;SDS011;5987;53.140;8.904;2023-07-29T02:27:44;15.63;;;10.00;;
11854;SDS011;5987;53.140;8.904;2023-07-29T02:30:48;14.00;;;8.57;;
11854;SDS011;5987;53.140;8.904;2023-07-29T02:34:13;21.57;;;11.27;;
11854;SDS011;5987;53.140;8.904;2023-07-29T02:37:17;18.87;;;10.13;;
11854;SDS011;5987;53.140;8.904;2023-07-29T02:40:20;15.33;;;10.90;;
11854;SDS011;5987;53.140;8.904;2023-07-29T02:43:26;15.07;;;9.40;;
11854;SDS011;5987;53.140;8.904;2023-07-29T02:46:29;14.93;;;10.43;;
11854;SDS011;5987;53.140;8.904;2023-07-29T02:49:33;18.83;;;11.80;;
11854;SDS011;5987;53.140;8.904;2023-07-29T02:52:37;16.70;;;10.53;;
11854;SDS011;5987;53.140;8.904;2023-07-29T02:55:41;14.37;;;8.60;;
11854;SDS011;5987;53.140;8.904;2023-07-29T02:58:46;18.50;;;9.77;;
11854;SDS011;5987;53.140;8.904;2023-07-29T03:01:49;16.03;;;10.30;;
11854;SDS011;5987;53.140;8.904;2023-07-29T03:04:53;16.83;;;8.40;;
11854;SDS011;5987;53.140;8.904;2023-07-29T03:07:57;14.97;;;10.37;;
11854;SDS011;5987;53.140;8.904;2023-07-29T03:11:05;17.90;;;9.93;;
11854;SDS011;5987;53.140;8.904;2023-07-29T03:14:11;15.00;;;9.13;;
11854;SDS011;5987;53.140;8.904;2023-07-29T03:17:14;17.60;;;9.63;;
11854;SDS011;5987;53.140;8.904;2023-07-29T03:20:19;15.70;;;8.97;;
11854;SDS011;5987;53.140;8.904;2023-07-29T03:23:23;16.90;;;11.10;;
11854;SDS011;5987;53.140;8.904;2023-07-29T03:26:27;18.97;;;10.63;;
11854;SDS011;5987;53.140;8.904;2023-07-29T03:29:32;13.67;;;10.07;;
11854;SDS011;5987;53.140;8.904;2023-07-29T03:32:37;23.30;;;12.37;;
11854;SDS011;5987;53.140;8.904;2023-07-29T03:35:46;22.17;;;11.63;;
11854;SDS011;5987;53.140;8.904;2023-07-29T03:38:50;20.83;;;11.87;;
11854;SDS011;5987;53.140;8.904;2023-07-29T03:41:53;22.10;;;11.23;;
11854;SDS011;5987;53.140;8.904;2023-07-29T03:44:58;17.93;;;10.13;;
11854;SDS011;5987;53.140;8.904;2023-07-29T03:48:02;20.30;;;11.63;;
11854;SDS011;5987;53.140;8.904;2023-07-29T03:51:07;24.77;;;13.03;;
11854;SDS011;5987;53.140;8.904;2023-07-29T03:54:11;25.47;;;13.03;;
11854;SDS011;5987;53.140;8.904;2023-07-29T03:57:14;19.90;;;12.47;;
11854;SDS011;5987;53.140;8.904;2023-07-29T04:00:19;22.47;;;12.17;;
11854;SDS011;5987;53.140;8.904;2023-07-29T04:03:23;23.03;;;12.57;;
11854;SDS011;5987;53.140;8.904;2023-07-29T04:06:27;21.30;;;11.00;;
11854;SDS011;5987;53.140;8.904;2023-07-29T04:09:30;16.10;;;10.30;;
11854;SDS011;5987;53.140;8.904;2023-07-29T04:12:34;25.47;;;12.23;;
11854;SDS011;5987;53.140;8.904;2023-07-29T04:15:39;18.60;;;11.00;;
11854;SDS011;5987;53.140;8.904;2023-07-29T04:18:43;18.73;;;11.43;;
11854;SDS011;5987;53.140;8.904;2023-07-29T04:21:46;25.23;;;12.43;;
11854;SDS011;5987;53.140;8.904;2023-07-29T04:24:52;18.67;;;10.37;;
11854;SDS011;5987;53.140;8.904;2023-07-29T04:27:55;16.73;;;10.73;;
11854;SDS011;5987;53.140;8.904;2023-07-29T04:31:01;16.90;;;10.50;;
11854;SDS011;5987;53.140;8.904;2023-07-29T04:34:05;19.60;;;11.47;;
11854;SDS011;5987;53.140;8.904;2023-07-29T04:37:08;17.43;;;11.30;;
11854;SDS011;5987;53.140;8.904;2023-07-29T04:40:12;16.10;;;11.13;;
11854;SDS011;5987;53.140;8.904;2023-07-29T04:43:15;19.63;;;11.33;;
11854;SDS011;5987;53.140;8.904;2023-07-29T04:46:20;18.83;;;9.70;;
11854;SDS011;5987;53.140;8.904;2023-07-29T04:49:24;19.03;;;11.03;;
11854;SDS011;5987;53.140;8.904;2023-07-29T04:52:28;19.53;;;11.07;;
11854;SDS011;5987;53.140;8.904;2023-07-29T04:55:31;25.33;;;12.80;;
11854;SDS011;5987;53.140;8.904;2023-07-29T04:58:35;19.97;;;13.47;;
11854;SDS011;5987;53.140;8.904;2023-07-29T05:01:40;19.03;;;11.37;;
11854;SDS011;5987;53.140;8.904;2023-07-29T05:04:44;18.87;;;12.67;;
11854;SDS011;5987;53.140;8.904;2023-07-29T05:07:48;19.90;;;11.03;;
11854;SDS011;5987;53.140;8.904;2023-07-29T05:10:52;20.60;;;11.70;;
11854;SDS011;5987;53.140;8.904;2023-07-29T05:13:56;19.30;;;12.10;;
11854;SDS011;5987;53.140;8.904;2023-07-29T05:17:01;19.83;;;12.10;;
11854;SDS011;5987;53.140;8.904;2023-07-29T05:20:05;18.27;;;11.63;;
11854;SDS011;5987;53.140;8.904;2023-07-29T05:23:10;15.83;;;10.53;;
11854;SDS011;5987;53.140;8.904;2023-07-29T05:26:14;18.03;;;10.73;;
11854;SDS011;5987;53.140;8.904;2023-07-29T05:29:17;18.97;;;10.90;;
11854;SDS011;5987;53.140;8.904;2023-07-29T05:32:22;17.80;;;11.03;;
11854;SDS011;5987;53.140;8.904;2023-07-29T05:35:26;17.73;;;10.77;;
11854;SDS011;5987;53.140;8.904;2023-07-29T05:38:30;15.13;;;10.07;;
11854;SDS011;5987;53.140;8.904;2023-07-29T05:41:34;18.10;;;9.93;;
11854;SDS011;5987;53.140;8.904;2023-07-29T05:44:37;15.10;;;10.20;;
11854;SDS011;5987;53.140;8.904;2023-07-29T05:47:42;16.10;;;10.00;;
11854;SDS011;5987;53.140;8.904;2023-07-29T05:50:46;13.17;;;8.87;;
11854;SDS011;5987;53.140;8.904;2023-07-29T05:53:49;19.97;;;11.27;;
11854;SDS011;5987;53.140;8.904;2023-07-29T05:56:53;23.80;;;10.73;;
11854;SDS011;5987;53.140;8.904;2023-07-29T05:59:56;14.03;;;9.30;;
11854;SDS011;5987;53.140;8.904;2023-07-29T06:03:01;19.60;;;11.13;;
11854;SDS011;5987;53.140;8.904;2023-07-29T06:06:05;17.63;;;10.10;;
11854;SDS011;5987;53.140;8.904;2023-07-29T06:09:09;18.27;;;10.80;;
11854;SDS011;5987;53.140;8.904;2023-07-29T06:12:13;14.40;;;9.43;;
11854;SDS011;5987;53.140;8.904;2023-07-29T06:15:16;17.77;;;9.83;;
11854;SDS011;5987;53.140;8.904;2023-07-29T06:18:24;17.23;;;11.20;;
11854;SDS011;5987;53.140;8.904;2023-07-29T06:21:28;19.43;;;9.33;;
11854;SDS011;5987;53.140;8.904;2023-07-29T06:24:32;13.73;;;8.73;;
11854;SDS011;5987;53.140;8.904;2023-07-29T06:27:35;16.07;;;10.73;;
11854;SDS011;5987;53.140;8.904;2023-07-29T06:30:39;16.37;;;10.87;;
11854;SDS011;5987;53.140;8.904;2023-07-29T06:33:45;14.33;;;8.93;;
11854;SDS011;5987;53.140;8.904;2023-07-29T06:36:49;20.03;;;11.70;;
11854;SDS011;5987;53.140;8.904;2023-07-29T06:39:53;18.07;;;11.20;;
11854;SDS011;5987;53.140;8.904;2023-07-29T06:42:57;19.53;;;11.73;;
11854;SDS011;5987;53.140;8.904;2023-07-29T06:46:00;17.30;;;10.67;;
11854;SDS011;5987;53.140;8.904;2023-07-29T06:49:06;17.17;;;10.97;;
11854;SDS011;5987;53.140;8.904;2023-07-29T06:52:09;16.00;;;9.97;;
11854;SDS011;5987;53.140;8.904;2023-07-29T06:55:13;13.10;;;9.60;;
11854;SDS011;5987;53.140;8.904;2023-07-29T06:58:17;13.47;;;8.87;;
11854;SDS011;5987;53.140;8.904;2023-07-29T07:01:20;21.40;;;11.23;;
11854;SDS011;5987;53.140;8.904;2023-07-29T07:04:25;13.23;;;8.97;;
11854;SDS011;5987;53.140;8.904;2023-07-29T07:07:29;13.47;;;9.53;;
11854;SDS011;5987;53.140;8.904;2023-07-29T07:10:33;19.97;;;10.13;;
11854;SDS011;5987;53.140;8.904;2023-07-29T07:13:36;16.87;;;8.97;;
11854;SDS011;5987;53.140;8.904;2023-07-29T07:16:40;13.43;;;8.90;;
11854;SDS011;5987;53.140;8.904;2023-07-29T07:19:45;13.97;;;8.67;;
11854;SDS011;5987;53.140;8.904;2023-07-29T07:22:49;11.80;;;7.80;;
11854;SDS011;5987;53.140;8.904;2023-07-29T07:25:52;12.97;;;8.57;;
11854;SDS011;5987;53.140;8.904;2023-07-29T07:28:56;12.13;;;8.90;;
11854;SDS011;5987;53.140;8.904;2023-07-29T07:31:59;14.33;;;9.13;;
11854;SDS011;5987;53.140;8.904;2023-07-29T07:35:05;11.37;;;7.67;;
11854;SDS011;5987;53.140;8.904;2023-07-29T07:38:09;15.57;;;8.43;;
11854;SDS011;5987;53.140;8.904;2023-07-29T07:41:13;12.30;;;8.37;;
11854;SDS011;5987;53.140;8.904;2023-07-29T07:44:17;12.20;;;8.00;;
11854;SDS011;5987;53.140;8.904;2023-07-29T07:47:21;10.83;;;7.77;;
11854;SDS011;5987;53.140;8.904;2023-07-29T07:50:26;9.30;;;7.57;;
11854;SDS011;5987;53.140;8.904;2023-07-29T07:53:32;8.90;;;6.43;;
11854;SDS011;5987;53.140;8.904;2023-07-29T07:56:36;9.20;;;5.73;;
11854;SDS011;5987;53.140;8.904;2023-07-29T07:59:40;8.57;;;6.53;;
11854;SDS011;5987;53.140;8.904;2023-07-29T08:02:43;9.37;;;5.57;;
11854;SDS011;5987;53.140;8.904;2023-07-29T08:05:49;7.77;;;5.47;;
11854;SDS011;5987;53.140;8.904;2023-07-29T08:08:52;8.07;;;5.67;;
11854;SDS011;5987;53.140;8.904;2023-07-29T08:11:56;9.97;;;5.60;;
11854;SDS011;5987;53.140;8.904;2023-07-29T08:15:00;9.27;;;6.27;;
11854;SDS011;5987;53.140;8.904;2023-07-29T08:18:04;8.00;;;5.03;;
11854;SDS011;5987;53.140;8.904;2023-07-29T08:21:09;7.40;;;5.00;;
11854;SDS011;5987;53.140;8.904;2023-07-29T08:24:13;6.70;;;4.90;;
11854;SDS011;5987;53.140;8.904;2023-07-29T08:27:16;8.20;;;5.07;;
11854;SDS011;5987;53.140;8.904;2023-07-29T08:30:20;5.80;;;4.37;;
11854;SDS011;5987;53.140;8.904;2023-07-29T08:33:24;5.87;;;4.20;;
11854;SDS011;5987;53.140;8.904;2023-07-29T08:36:31;3.53;;;2.63;;
11854;SDS011;5987;53.140;8.904;2023-07-29T08:39:35;4.00;;;2.17;;
11854;SDS011;5987;53.140;8.904;2023-07-29T08:42:38;4.70;;;1.80;;
11854;SDS011;5987;53.140;8.904;2023-07-29T08:45:47;3.33;;;1.80;;
11854;SDS011;5987;53.140;8.904;2023-07-29T08:48:53;2.83;;;1.70;;
11854;SDS011;5987;53.140;8.904;2023-07-29T08:52:00;1.77;;;1.43;;
11854;SDS011;5987;53.140;8.904;2023-07-29T08:55:05;1.80;;;1.50;;
11854;SDS011;5987;53.140;8.904;2023-07-29T08:58:09;2.00;;;1.77;;
11854;SDS011;5987;53.140;8.904;2023-07-29T09:01:14;1.23;;;1.13;;
11854;SDS011;5987;53.140;8.904;2023-07-29T09:04:18;4.80;;;2.13;;
11854;SDS011;5987;53.140;8.904;2023-07-29T09:07:23;1.67;;;1.57;;
11854;SDS011;5987;53.140;8.904;2023-07-29T09:10:28;4.60;;;1.77;;
11854;SDS011;5987;53.140;8.904;2023-07-29T09:13:32;1.83;;;1.60;;
11854;SDS011;5987;53.140;8.904;2023-07-29T09:16:36;2.23;;;1.53;;
11854;SDS011;5987;53.140;8.904;2023-07-29T09:19:40;1.70;;;1.50;;
11854;SDS011;5987;53.140;8.904;2023-07-29T09:22:45;1.80;;;1.53;;
11854;SDS011;5987;53.140;8.904;2023-07-29T09:25:50;4.27;;;2.47;;
11854;SDS011;5987;53.140;8.904;2023-07-29T09:29:02;3.07;;;1.77;;
11854;SDS011;5987;53.140;8.904;2023-07-29T09:32:19;2.90;;;1.67;;
11854;SDS011;5987;53.140;8.904;2023-07-29T09:35:24;3.07;;;1.90;;
11854;SDS011;5987;53.140;8.904;2023-07-29T09:38:32;1.27;;;1.10;;
11854;SDS011;5987;53.140;8.904;2023-07-29T09:41:38;3.57;;;2.90;;
11854;SDS011;5987;53.140;8.904;2023-07-29T09:44:42;5.10;;;3.00;;
11854;SDS011;5987;53.140;8.904;2023-07-29T09:47:46;4.37;;;2.53;;
11854;SDS011;5987;53.140;8.904;2023-07-29T09:50:50;3.57;;;1.93;;
11854;SDS011;5987;53.140;8.904;2023-07-29T09:53:55;5.73;;;1.60;;
11854;SDS011;5987;53.140;8.904;2023-07-29T09:57:00;3.97;;;1.13;;
11854;SDS011;5987;53.140;8.904;2023-07-29T10:00:04;2.93;;;1.40;;
11854;SDS011;5987;53.140;8.904;2023-07-29T10:03:12;2.00;;;1.57;;
11854;SDS011;5987;53.140;8.904;2023-07-29T10:06:18;1.57;;;1.47;;
11854;SDS011;5987;53.140;8.904;2023-07-29T10:09:24;1.83;;;1.53;;
11854;SDS011;5987;53.140;8.904;2023-07-29T10:12:30;1.40;;;1.30;;
11854;SDS011;5987;53.140;8.904;2023-07-29T10:15:35;4.20;;;1.67;;
11854;SDS011;5987;53.140;8.904;2023-07-29T10:18:39;1.80;;;1.57;;
11854;SDS011;5987;53.140;8.904;2023-07-29T10:21:44;2.40;;;1.80;;
11854;SDS011;5987;53.140;8.904;2023-07-29T10:24:54;2.27;;;1.90;;
11854;SDS011;5987;53.140;8.904;2023-07-29T10:28:06;2.90;;;2.53;;
11854;SDS011;5987;53.140;8.904;2023-07-29T10:31:15;2.23;;;2.03;;
11854;SDS011;5987;53.140;8.904;2023-07-29T10:34:20;2.23;;;1.93;;
11854;SDS011;5987;53.140;8.904;2023-07-29T10:37:24;2.37;;;2.17;;
11854;SDS011;5987;53.140;8.904;2023-07-29T10:43:50;2.23;;;1.83;;
11854;SDS011;5987;53.140;8.904;2023-07-29T10:46:55;4.00;;;2.10;;
11854;SDS011;5987;53.140;8.904;2023-07-29T10:49:59;2.03;;;1.93;;
11854;SDS011;5987;53.140;8.904;2023-07-29T10:53:03;2.00;;;1.80;;
11854;SDS011;5987;53.140;8.904;2023-07-29T10:56:08;2.47;;;1.77;;
11854;SDS011;5987;53.140;8.904;2023-07-29T11:02:36;1.77;;;1.60;;
11854;SDS011;5987;53.140;8.904;2023-07-29T11:05:41;3.47;;;1.80;;
11854;SDS011;5987;53.140;8.904;2023-07-29T11:08:51;2.83;;;1.80;;
11854;SDS011;5987;53.140;8.904;2023-07-29T11:11:57;1.60;;;1.50;;
11854;SDS011;5987;53.140;8.904;2023-07-29T11:15:13;1.70;;;1.43;;
11854;SDS011;5987;53.140;8.904;2023-07-29T11:18:28;3.17;;;1.63;;
11854;SDS011;5987;53.140;8.904;2023-07-29T11:21:35;1.50;;;1.40;;
11854;SDS011;5987;53.140;8.904;2023-07-29T11:24:41;2.57;;;1.57;;
11854;SDS011;5987;53.140;8.904;2023-07-29T11:27:46;1.67;;;1.30;;
11854;SDS011;5987;53.140;8.904;2023-07-29T11:30:50;1.23;;;0.97;;
11854;SDS011;5987;53.140;8.904;2023-07-29T11:33:55;1.80;;;1.50;;
11854;SDS011;5987;53.140;8.904;2023-07-29T11:36:58;1.30;;;1.20;;
11854;SDS011;5987;53.140;8.904;2023-07-29T11:40:02;0.93;;;0.90;;
11854;SDS011;5987;53.140;8.904;2023-07-29T11:43:09;1.33;;;1.20;;
11854;SDS011;5987;53.140;8.904;2023-07-29T11:46:22;1.23;;;1.00;;
11854;SDS011;5987;53.140;8.904;2023-07-29T11:49:26;1.47;;;1.23;;
11854;SDS011;5987;53.140;8.904;2023-07-29T11:52:30;1.43;;;1.20;;
11854;SDS011;5987;53.140;8.904;2023-07-29T11:55:35;2.10;;;1.47;;
11854;SDS011;5987;53.140;8.904;2023-07-29T11:58:41;1.67;;;1.40;;
11854;SDS011;5987;53.140;8.904;2023-07-29T12:01:45;1.23;;;1.13;;
11854;SDS011;5987;53.140;8.904;2023-07-29T12:04:49;1.63;;;1.40;;
11854;SDS011;5987;53.140;8.904;2023-07-29T12:07:53;2.13;;;1.60;;
11854;SDS011;5987;53.140;8.904;2023-07-29T12:10:57;1.50;;;1.40;;
11854;SDS011;5987;53.140;8.904;2023-07-29T12:14:02;1.47;;;1.37;;
11854;SDS011;5987;53.140;8.904;2023-07-29T12:17:10;2.83;;;1.67;;
11854;SDS011;5987;53.140;8.904;2023-07-29T12:20:14;2.10;;;1.20;;
11854;SDS011;5987;53.140;8.904;2023-07-29T12:23:18;0.87;;;0.87;;
11854;SDS011;5987;53.140;8.904;2023-07-29T12:26:28;2.30;;;1.23;;
11854;SDS011;5987;53.140;8.904;2023-07-29T12:29:39;1.47;;;1.13;;
11854;SDS011;5987;53.140;8.904;2023-07-29T12:32:44;1.87;;;1.17;;
11854;SDS011;5987;53.140;8.904;2023-07-29T12:35:50;1.80;;;1.37;;
11854;SDS011;5987;53.140;8.904;2023-07-29T12:38:53;1.40;;;1.30;;
11854;SDS011;5987;53.140;8.904;2023-07-29T12:42:02;1.23;;;1.07;;
11854;SDS011;5987;53.140;8.904;2023-07-29T12:45:08;1.10;;;1.00;;
11854;SDS011;5987;53.140;8.904;2023-07-29T12:48:12;1.87;;;1.23;;
11854;SDS011;5987;53.140;8.904;2023-07-29T12:51:16;2.63;;;1.30;;
11854;SDS011;5987;53.140;8.904;2023-07-29T12:54:20;1.03;;;0.97;;
11854;SDS011;5987;53.140;8.904;2023-07-29T12:57:24;1.53;;;1.43;;
11854;SDS011;5987;53.140;8.904;2023-07-29T13:00:29;3.03;;;1.20;;
11854;SDS011;5987;53.140;8.904;2023-07-29T13:03:33;1.87;;;0.97;;
11854;SDS011;5987;53.140;8.904;2023-07-29T13:06:37;1.80;;;1.70;;
11854;SDS011;5987;53.140;8.904;2023-07-29T13:09:41;1.63;;;1.30;;
11854;SDS011;5987;53.140;8.904;2023-07-29T13:12:45;2.03;;;1.27;;
11854;SDS011;5987;53.140;8.904;2023-07-29T13:15:51;2.07;;;1.40;;
11854;SDS011;5987;53.140;8.904;2023-07-29T13:18:55;2.20;;;0.97;;
11854;SDS011;5987;53.140;8.904;2023-07-29T13:21:59;1.90;;;1.10;;
11854;SDS011;5987;53.140;8.904;2023-07-29T13:25:04;1.20;;;1.00;;
11854;SDS011;5987;53.140;8.904;2023-07-29T13:28:09;3.73;;;1.10;;
11854;SDS011;5987;53.140;8.904;2023-07-29T13:31:16;6.03;;;1.00;;
11854;SDS011;5987;53.140;8.904;2023-07-29T13:34:19;1.80;;;1.23;;
11854;SDS011;5987;53.140;8.904;2023-07-29T13:37:23;1.40;;;1.30;;
11854;SDS011;5987;53.140;8.904;2023-07-29T13:40:27;3.10;;;1.17;;
11854;SDS011;5987;53.140;8.904;2023-07-29T13:43:32;5.53;;;1.90;;
11854;SDS011;5987;53.140;8.904;2023-07-29T13:46:37;2.27;;;1.30;;
11854;SDS011;5987;53.140;8.904;2023-07-29T13:49:40;1.57;;;0.87;;
11854;SDS011;5987;53.140;8.904;2023-07-29T13:52:44;1.60;;;1.20;;
11854;SDS011;5987;53.140;8.904;2023-07-29T13:55:48;1.63;;;1.20;;
11854;SDS011;5987;53.140;8.904;2023-07-29T13:58:52;1.37;;;1.10;;
11854;SDS011;5987;53.140;8.904;2023-07-29T14:01:57;2.60;;;1.20;;
11854;SDS011;5987;53.140;8.904;2023-07-29T14:05:00;2.07;;;0.80;;
11854;SDS011;5987;53.140;8.904;2023-07-29T14:08:04;1.50;;;1.10;;
11854;SDS011;5987;53.140;8.904;2023-07-29T14:11:08;1.23;;;0.90;;
11854;SDS011;5987;53.140;8.904;2023-07-29T14:14:11;1.57;;;1.10;;
11854;SDS011;5987;53.140;8.904;2023-07-29T14:17:17;2.77;;;1.40;;
11854;SDS011;5987;53.140;8.904;2023-07-29T14:20:20;1.67;;;1.27;;
11854;SDS011;5987;53.140;8.904;2023-07-29T14:23:24;2.03;;;0.90;;
11854;SDS011;5987;53.140;8.904;2023-07-29T14:26:28;1.47;;;1.00;;
11854;SDS011;5987;53.140;8.904;2023-07-29T14:29:31;0.93;;;0.70;;
11854;SDS011;5987;53.140;8.904;2023-07-29T14:32:36;0.90;;;0.90;;
11854;SDS011;5987;53.140;8.904;2023-07-29T14:35:40;2.27;;;1.30;;
11854;SDS011;5987;53.140;8.904;2023-07-29T14:38:44;1.50;;;1.00;;
11854;SDS011;5987;53.140;8.904;2023-07-29T14:41:47;1.43;;;1.30;;
11854;SDS011;5987;53.140;8.904;2023-07-29T14:44:51;1.67;;;1.10;;
11854;SDS011;5987;53.140;8.904;2023-07-29T14:47:56;1.97;;;1.00;;
11854;SDS011;5987;53.140;8.904;2023-07-29T14:51:00;2.17;;;1.03;;
11854;SDS011;5987;53.140;8.904;2023-07-29T14:54:04;1.07;;;0.97;;
11854;SDS011;5987;53.140;8.904;2023-07-29T14:57:07;1.23;;;1.07;;
11854;SDS011;5987;53.140;8.904;2023-07-29T15:00:12;2.97;;;1.67;;
11854;SDS011;5987;53.140;8.904;2023-07-29T15:03:17;1.53;;;1.13;;
11854;SDS011;5987;53.140;8.904;2023-07-29T15:06:21;1.43;;;1.33;;
11854;SDS011;5987;53.140;8.904;2023-07-29T15:09:25;1.63;;;1.50;;
11854;SDS011;5987;53.140;8.904;2023-07-29T15:12:29;2.80;;;1.40;;
11854;SDS011;5987;53.140;8.904;2023-07-29T15:15:33;2.67;;;1.40;;
11854;SDS011;5987;53.140;8.904;2023-07-29T15:18:38;3.63;;;2.20;;
11854;SDS011;5987;53.140;8.904;2023-07-29T15:21:41;1.63;;;1.53;;
11854;SDS011;5987;53.140;8.904;2023-07-29T15:24:45;2.17;;;1.80;;
11854;SDS011;5987;53.140;8.904;2023-07-29T15:27:49;3.03;;;1.97;;
11854;SDS011;5987;53.140;8.904;2023-07-29T15:30:53;2.67;;;2.00;;
11854;SDS011;5987;53.140;8.904;2023-07-29T15:33:59;2.63;;;2.30;;
11854;SDS011;5987;53.140;8.904;2023-07-29T15:37:02;3.93;;;3.10;;
11854;SDS011;5987;53.140;8.904;2023-07-29T15:40:07;4.13;;;2.83;;
11854;SDS011;5987;53.140;8.904;2023-07-29T15:43:12;6.17;;;3.10;;
11854;SDS011;5987;53.140;8.904;2023-07-29T15:46:15;5.07;;;3.27;;
11854;SDS011;5987;53.140;8.904;2023-07-29T15:49:20;4.07;;;2.70;;
11854;SDS011;5987;53.140;8.904;2023-07-29T15:52:24;3.60;;;3.30;;
11854;SDS011;5987;53.140;8.904;2023-07-29T15:55:28;3.70;;;3.07;;
11854;SDS011;5987;53.140;8.904;2023-07-29T15:58:32;3.43;;;3.03;;
11854;SDS011;5987;53.140;8.904;2023-07-29T16:01:36;4.37;;;3.17;;
11854;SDS011;5987;53.140;8.904;2023-07-29T16:04:42;3.63;;;2.30;;
11854;SDS011;5987;53.140;8.904;2023-07-29T16:07:45;3.87;;;2.70;;
11854;SDS011;5987;53.140;8.904;2023-07-29T16:10:50;3.33;;;2.97;;
11854;SDS011;5987;53.140;8.904;2023-07-29T16:13:53;4.70;;;3.07;;
11854;SDS011;5987;53.140;8.904;2023-07-29T16:16:57;5.47;;;3.27;;
11854;SDS011;5987;53.140;8.904;2023-07-29T16:20:02;4.07;;;2.83;;
11854;SDS011;5987;53.140;8.904;2023-07-29T16:23:07;5.00;;;2.73;;
11854;SDS011;5987;53.140;8.904;2023-07-29T16:26:11;3.80;;;2.50;;
11854;SDS011;5987;53.140;8.904;2023-07-29T16:29:15;1.80;;;1.50;;
11854;SDS011;5987;53.140;8.904;2023-07-29T16:32:18;3.50;;;1.70;;
11854;SDS011;5987;53.140;8.904;2023-07-29T16:35:23;3.10;;;1.73;;
11854;SDS011;5987;53.140;8.904;2023-07-29T16:38:27;1.93;;;1.40;;
11854;SDS011;5987;53.140;8.904;2023-07-29T16:41:31;3.10;;;1.20;;
11854;SDS011;5987;53.140;8.904;2023-07-29T16:44:54;2.13;;;1.23;;
11854;SDS011;5987;53.140;8.904;2023-07-29T16:47:58;1.37;;;1.20;;
11854;SDS011;5987;53.140;8.904;2023-07-29T16:51:03;2.90;;;1.70;;
11854;SDS011;5987;53.140;8.904;2023-07-29T16:54:10;2.07;;;1.17;;
11854;SDS011;5987;53.140;8.904;2023-07-29T16:57:15;1.40;;;1.03;;
11854;SDS011;5987;53.140;8.904;2023-07-29T17:00:19;1.50;;;1.23;;
11854;SDS011;5987;53.140;8.904;2023-07-29T17:03:22;4.70;;;1.27;;
11854;SDS011;5987;53.140;8.904;2023-07-29T17:06:28;3.30;;;1.83;;
11854;SDS011;5987;53.140;8.904;2023-07-29T17:09:32;2.10;;;1.60;;
11854;SDS011;5987;53.140;8.904;2023-07-29T17:12:35;1.90;;;1.53;;
11854;SDS011;5987;53.140;8.904;2023-07-29T17:15:39;4.90;;;1.83;;
11854;SDS011;5987;53.140;8.904;2023-07-29T17:18:43;1.87;;;1.30;;
11854;SDS011;5987;53.140;8.904;2023-07-29T17:21:48;3.60;;;1.60;;
11854;SDS011;5987;53.140;8.904;2023-07-29T17:24:53;3.27;;;1.60;;
11854;SDS011;5987;53.140;8.904;2023-07-29T17:27:56;2.80;;;1.90;;
11854;SDS011;5987;53.140;8.904;2023-07-29T17:31:00;2.03;;;1.70;;
11854;SDS011;5987;53.140;8.904;2023-07-29T17:34:05;1.40;;;1.30;;
11854;SDS011;5987;53.140;8.904;2023-07-29T17:37:10;1.50;;;1.40;;
11854;SDS011;5987;53.140;8.904;2023-07-29T17:40:17;2.87;;;1.50;;
11854;SDS011;5987;53.140;8.904;2023-07-29T17:43:20;2.93;;;1.27;;
11854;SDS011;5987;53.140;8.904;2023-07-29T17:46:24;4.20;;;1.93;;
11854;SDS011;5987;53.140;8.904;2023-07-29T17:49:28;3.70;;;1.60;;
11854;SDS011;5987;53.140;8.904;2023-07-29T17:52:33;2.53;;;1.43;;
11854;SDS011;5987;53.140;8.904;2023-07-29T17:55:37;3.13;;;1.87;;
11854;SDS011;5987;53.140;8.904;2023-07-29T17:58:46;1.37;;;1.27;;
11854;SDS011;5987;53.140;8.904;2023-07-29T18:01:50;1.77;;;1.67;;
11854;SDS011;5987;53.140;8.904;2023-07-29T18:04:54;1.67;;;1.30;;
11854;SDS011;5987;53.140;8.904;2023-07-29T18:08:01;1.53;;;1.43;;
11854;SDS011;5987;53.140;8.904;2023-07-29T18:11:05;3.70;;;2.00;;
11854;SDS011;5987;53.140;8.904;2023-07-29T18:14:09;2.47;;;2.27;;
11854;SDS011;5987;53.140;8.904;2023-07-29T18:17:13;3.83;;;1.70;;
11854;SDS011;5987;53.140;8.904;2023-07-29T18:20:16;1.57;;;1.40;;
11854;SDS011;5987;53.140;8.904;2023-07-29T18:23:21;2.40;;;2.00;;
11854;SDS011;5987;53.140;8.904;2023-07-29T18:26:26;2.73;;;2.10;;
11854;SDS011;5987;53.140;8.904;2023-07-29T18:29:31;3.07;;;2.00;;
11854;SDS011;5987;53.140;8.904;2023-07-29T18:32:35;13.20;;;10.40;;
11854;SDS011;5987;53.140;8.904;2023-07-29T18:35:40;4.27;;;3.73;;
11854;SDS011;5987;53.140;8.904;2023-07-29T18:38:45;2.27;;;1.77;;
11854;SDS011;5987;53.140;8.904;2023-07-29T18:41:49;3.13;;;2.03;;
11854;SDS011;5987;53.140;8.904;2023-07-29T18:44:53;4.90;;;2.00;;
11854;SDS011;5987;53.140;8.904;2023-07-29T18:47:56;2.97;;;1.83;;